地図

経路データ

SID SEASON NUMBER BASIN SUBBASIN NAME ISO_TIME NATURE LAT LON WMO_WIND WMO_PRES WMO_AGENCY TRACK_TYPE DIST2LAND LANDFALL IFLAG USA_AGENCY USA_ATCF_ID USA_LAT USA_LON USA_RECORD USA_STATUS USA_WIND USA_PRES USA_SSHS USA_R34_NE USA_R34_SE USA_R34_SW USA_R34_NW USA_R50_NE USA_R50_SE USA_R50_SW USA_R50_NW USA_R64_NE USA_R64_SE USA_R64_SW USA_R64_NW USA_POCI USA_ROCI USA_RMW USA_EYE TOKYO_LAT TOKYO_LON TOKYO_GRADE TOKYO_WIND TOKYO_PRES TOKYO_R50_DIR TOKYO_R50_LONG TOKYO_R50_SHORT TOKYO_R30_DIR TOKYO_R30_LONG TOKYO_R30_SHORT TOKYO_LAND CMA_LAT CMA_LON CMA_CAT CMA_WIND CMA_PRES HKO_LAT HKO_LON HKO_CAT HKO_WIND HKO_PRES NEWDELHI_LAT NEWDELHI_LON NEWDELHI_GRADE NEWDELHI_WIND NEWDELHI_PRES NEWDELHI_CI NEWDELHI_DP NEWDELHI_POCI REUNION_LAT REUNION_LON REUNION_TYPE REUNION_WIND REUNION_PRES REUNION_TNUM REUNION_CI REUNION_RMW REUNION_R34_NE REUNION_R34_SE REUNION_R34_SW REUNION_R34_NW REUNION_R50_NE REUNION_R50_SE REUNION_R50_SW REUNION_R50_NW REUNION_R64_NE REUNION_R64_SE REUNION_R64_SW REUNION_R64_NW BOM_LAT BOM_LON BOM_TYPE BOM_WIND BOM_PRES BOM_TNUM BOM_CI BOM_RMW BOM_R34_NE BOM_R34_SE BOM_R34_SW BOM_R34_NW BOM_R50_NE BOM_R50_SE BOM_R50_SW BOM_R50_NW BOM_R64_NE BOM_R64_SE BOM_R64_SW BOM_R64_NW BOM_ROCI BOM_POCI BOM_EYE BOM_POS_METHOD BOM_PRES_METHOD NADI_LAT NADI_LON NADI_CAT NADI_WIND NADI_PRES WELLINGTON_LAT WELLINGTON_LON WELLINGTON_WIND WELLINGTON_PRES DS824_LAT DS824_LON DS824_STAGE DS824_WIND DS824_PRES TD9636_LAT TD9636_LON TD9636_STAGE TD9636_WIND TD9636_PRES TD9635_LAT TD9635_LON TD9635_WIND TD9635_PRES TD9635_ROCI NEUMANN_LAT NEUMANN_LON NEUMANN_CLASS NEUMANN_WIND NEUMANN_PRES MLC_LAT MLC_LON MLC_CLASS MLC_WIND MLC_PRES USA_GUST BOM_GUST BOM_GUST_PER REUNION_GUST REUNION_GUST_PER USA_SEAHGT USA_SEARAD_NE USA_SEARAD_SE USA_SEARAD_SW USA_SEARAD_NW STORM_SPEED STORM_DIR
1980250N13341 1980 74 NA NA FRANCES 1980-09-06 00:00:00 TS 12.5000 -19.0000 25 1010 hurdat_atl main 239 239 O_____________ hurdat_atl AL121980 12.5000 -19.0000 TD 25 1010 -1 10 269
1980250N13341 1980 74 NA NA FRANCES 1980-09-06 03:00:00 TS 12.4901 -19.4951 main 293 293 P_____________ AL121980 12.4901 -19.4951 TD 25 1009 -1 10 270
1980250N13341 1980 74 NA NA FRANCES 1980-09-06 06:00:00 TS 12.5000 -20.0000 25 1009 hurdat_atl main 347 347 O_____________ hurdat_atl AL121980 12.5000 -20.0000 TD 25 1009 -1 10 273
1980250N13341 1980 74 NA NA FRANCES 1980-09-06 09:00:00 TS 12.5425 -20.5150 main 402 402 P_____________ AL121980 12.5425 -20.5150 TD 27 1008 -1 10 276
1980250N13341 1980 74 NA NA FRANCES 1980-09-06 12:00:00 TS 12.6000 -21.0000 30 1008 hurdat_atl main 445 445 O_____________ hurdat_atl AL121980 12.6000 -21.0000 TD 30 1008 -1 9 277
1980250N13341 1980 74 NA NA FRANCES 1980-09-06 15:00:00 TS 12.6499 -21.4225 main 482 477 P_____________ AL121980 12.6499 -21.4225 TD 32 1006 -1 8 277
1980250N13341 1980 74 NA NA FRANCES 1980-09-06 18:00:00 TS 12.7000 -21.8000 35 1005 hurdat_atl main 515 515 O_____________ hurdat_atl AL121980 12.7000 -21.8000 TS 35 1005 0 7 278
1980250N13341 1980 74 NA NA FRANCES 1980-09-06 21:00:00 TS 12.7499 -22.1575 main 555 550 P_____________ AL121980 12.7499 -22.1575 TS 37 1003 0 7 278
1980250N13341 1980 74 NA NA FRANCES 1980-09-07 00:00:00 TS 12.8000 -22.5000 40 1002 hurdat_atl main 580 580 O_____________ hurdat_atl AL121980 12.8000 -22.5000 TS 40 1002 0 7 279
1980250N13341 1980 74 NA NA FRANCES 1980-09-07 03:00:00 TS 12.8499 -22.8425 main 610 610 P_____________ AL121980 12.8499 -22.8425 TS 42 1000 0 7 278
1980250N13341 1980 74 NA NA FRANCES 1980-09-07 06:00:00 TS 12.9000 -23.2000 45 998 hurdat_atl main 647 647 O_____________ hurdat_atl AL121980 12.9000 -23.2000 TS 45 998 0 7 278
1980250N13341 1980 74 NA NA FRANCES 1980-09-07 09:00:00 TS 12.9575 -23.5925 main 685 685 P_____________ AL121980 12.9575 -23.5925 TS 50 996 0 8 277
1980250N13341 1980 74 NA NA FRANCES 1980-09-07 12:00:00 TS 13.0000 -24.0000 55 994 hurdat_atl main 727 727 O_____________ hurdat_atl AL121980 13.0000 -24.0000 TS 55 994 0 8 274
1980250N13341 1980 74 NA NA FRANCES 1980-09-07 15:00:00 TS 13.0074 -24.4000 main 769 769 P_____________ AL121980 13.0074 -24.4000 TS 57 992 0 8 270
1980250N13341 1980 74 NA NA FRANCES 1980-09-07 18:00:00 TS 13.0000 -24.8000 60 990 hurdat_atl main 811 811 O_____________ hurdat_atl AL121980 13.0000 -24.8000 TS 60 990 0 8 269
1980250N13341 1980 74 NA NA FRANCES 1980-09-07 21:00:00 TS 12.9998 -25.1700 main 853 853 P_____________ AL121980 12.9998 -25.1700 TS 62 988 0 8 270
1980250N13341 1980 74 NA NA FRANCES 1980-09-08 00:00:00 TS 13.0000 -25.6000 65 986 hurdat_atl main 895 895 O_____________ hurdat_atl AL121980 13.0000 -25.6000 HU 65 986 1 10 270
1980250N13341 1980 74 NA NA FRANCES 1980-09-08 03:00:00 TS 13.0075 -26.1700 main 958 958 P_____________ AL121980 13.0075 -26.1700 HU 67 982 1 12 270
1980250N13341 1980 74 NA NA FRANCES 1980-09-08 06:00:00 TS 13.0000 -26.8000 70 978 hurdat_atl main 1022 1022 O_____________ hurdat_atl AL121980 13.0000 -26.8000 HU 70 978 1 12 268
1980250N13341 1980 74 NA NA FRANCES 1980-09-08 09:00:00 TS 12.9575 -27.4150 main 1086 1086 P_____________ AL121980 12.9575 -27.4150 HU 75 974 1 12 265
1980250N13341 1980 74 NA NA FRANCES 1980-09-08 12:00:00 TS 12.9000 -28.0000 80 970 hurdat_atl main 1152 1152 O_____________ hurdat_atl AL121980 12.9000 -28.0000 HU 80 970 1 11 264
1980250N13341 1980 74 NA NA FRANCES 1980-09-08 15:00:00 TS 12.8424 -28.5300 main 1207 1207 P_____________ AL121980 12.8424 -28.5300 HU 85 967 2 10 264
1980250N13341 1980 74 NA NA FRANCES 1980-09-08 18:00:00 TS 12.8000 -29.0000 90 965 hurdat_atl main 1260 1260 O_____________ hurdat_atl AL121980 12.8000 -29.0000 HU 90 965 2 9 266
1980250N13341 1980 74 NA NA FRANCES 1980-09-08 21:00:00 TS 12.7849 -29.4225 main 1303 1303 P_____________ AL121980 12.7849 -29.4225 HU 95 962 2 8 270
1980250N13341 1980 74 NA NA FRANCES 1980-09-09 00:00:00 TS 12.8000 -29.8000 100 960 hurdat_atl main 1345 1345 O_____________ hurdat_atl AL121980 12.8000 -29.8000 HU 100 960 3 7 275
1980250N13341 1980 74 NA NA FRANCES 1980-09-09 03:00:00 TS 12.8424 -30.1500 main 1377 1377 P_____________ AL121980 12.8424 -30.1500 HU 100 959 3 7 278
1980250N13341 1980 74 NA NA FRANCES 1980-09-09 06:00:00 TS 12.9000 -30.5000 100 958 hurdat_atl main 1418 1418 O_____________ hurdat_atl AL121980 12.9000 -30.5000 HU 100 958 3 7 278
1980250N13341 1980 74 NA NA FRANCES 1980-09-09 09:00:00 TS 12.9425 -30.8925 main 1461 1461 P_____________ AL121980 12.9425 -30.8925 HU 100 959 3 8 277
1980250N13341 1980 74 NA NA FRANCES 1980-09-09 12:00:00 TS 13.0000 -31.3000 100 960 hurdat_atl main 1502 1502 O_____________ hurdat_atl AL121980 13.0000 -31.3000 HU 100 960 3 8 281
1980250N13341 1980 74 NA NA FRANCES 1980-09-09 15:00:00 TS 13.0924 -31.7000 main 1543 1543 P_____________ AL121980 13.0924 -31.7000 HU 95 962 2 8 284
1980250N13341 1980 74 NA NA FRANCES 1980-09-09 18:00:00 TS 13.2000 -32.1000 90 965 hurdat_atl main 1585 1585 O_____________ hurdat_atl AL121980 13.2000 -32.1000 HU 90 965 2 8 284
1980250N13341 1980 74 NA NA FRANCES 1980-09-09 21:00:00 TS 13.2850 -32.5151 main 1626 1626 P_____________ AL121980 13.2850 -32.5151 HU 90 965 2 8 284
1980250N13341 1980 74 NA NA FRANCES 1980-09-10 00:00:00 TS 13.4000 -32.9000 90 966 hurdat_atl main 1668 1668 O_____________ hurdat_atl AL121980 13.4000 -32.9000 HU 90 966 2 7 294
1980250N13341 1980 74 NA NA FRANCES 1980-09-10 03:00:00 TS 13.5849 -33.2150 main 1697 1697 P_____________ AL121980 13.5849 -33.2150 HU 90 966 2 7 304
1980250N13341 1980 74 NA NA FRANCES 1980-09-10 06:00:00 TS 13.8000 -33.5000 90 967 hurdat_atl main 1727 1727 O_____________ hurdat_atl AL121980 13.8000 -33.5000 HU 90 967 2 7 304
1980250N13341 1980 74 NA NA FRANCES 1980-09-10 09:00:00 TS 13.9775 -33.8076 main 1758 1758 P_____________ AL121980 13.9775 -33.8076 HU 87 967 2 7 304
1980250N13341 1980 74 NA NA FRANCES 1980-09-10 12:00:00 TS 14.2000 -34.1000 85 968 hurdat_atl main 1788 1788 O_____________ hurdat_atl AL121980 14.2000 -34.1000 HU 85 968 2 8 316
1980250N13341 1980 74 NA NA FRANCES 1980-09-10 15:00:00 TS 14.5425 -34.3724 main 1819 1818 P_____________ AL121980 14.5425 -34.3724 HU 82 969 1 9 325
1980250N13341 1980 74 NA NA FRANCES 1980-09-10 18:00:00 TS 14.9000 -34.6000 80 970 hurdat_atl main 1838 1838 O_____________ hurdat_atl AL121980 14.9000 -34.6000 HU 80 970 1 7 327
1980250N13341 1980 74 NA NA FRANCES 1980-09-10 21:00:00 TS 15.1575 -34.7801 main 1859 1859 P_____________ AL121980 15.1575 -34.7801 HU 82 969 1 6 330
1980250N13341 1980 74 NA NA FRANCES 1980-09-11 00:00:00 TS 15.4000 -34.9000 85 968 hurdat_atl main 1870 1870 O_____________ hurdat_atl AL121980 15.4000 -34.9000 HU 85 968 2 6 343
1980250N13341 1980 74 NA NA FRANCES 1980-09-11 03:00:00 TS 15.7150 -34.9501 main 1881 1881 P_____________ AL121980 15.7150 -34.9501 HU 87 966 2 6 351
1980250N13341 1980 74 NA NA FRANCES 1980-09-11 06:00:00 TS 16.0000 -35.0000 90 965 hurdat_atl main 1882 1882 O_____________ hurdat_atl AL121980 16.0000 -35.0000 HU 90 965 2 5 341
1980250N13341 1980 74 NA NA FRANCES 1980-09-11 09:00:00 TS 16.1724 -35.1126 main 1893 1893 P_____________ AL121980 16.1724 -35.1126 HU 90 966 2 4 316
1980250N13341 1980 74 NA NA FRANCES 1980-09-11 12:00:00 TS 16.3000 -35.3000 90 967 hurdat_atl main 1915 1915 O_____________ hurdat_atl AL121980 16.3000 -35.3000 HU 90 967 2 5 300
1980250N13341 1980 74 NA NA FRANCES 1980-09-11 15:00:00 TS 16.4426 -35.6074 main 1948 1948 P_____________ AL121980 16.4426 -35.6074 HU 87 967 2 7 298
1980250N13341 1980 74 NA NA FRANCES 1980-09-11 18:00:00 TS 16.6000 -35.9000 85 968 hurdat_atl main 1981 1981 O_____________ hurdat_atl AL121980 16.6000 -35.9000 HU 85 968 2 5 315
1980250N13341 1980 74 NA NA FRANCES 1980-09-11 21:00:00 TS 16.8073 -35.9852 main 1993 1993 P_____________ AL121980 16.8073 -35.9852 HU 82 969 1 4 335
1980250N13341 1980 74 NA NA FRANCES 1980-09-12 00:00:00 TS 17.0000 -36.1000 80 970 hurdat_atl main 2006 2006 O_____________ hurdat_atl AL121980 17.0000 -36.1000 HU 80 970 1 5 302
1980250N13341 1980 74 NA NA FRANCES 1980-09-12 03:00:00 TS 17.0851 -36.4478 main 2038 2038 P_____________ AL121980 17.0851 -36.4478 HU 80 970 1 8 285
1980250N13341 1980 74 NA NA FRANCES 1980-09-12 06:00:00 TS 17.2000 -36.9000 80 970 hurdat_atl main 2092 2092 O_____________ hurdat_atl AL121980 17.2000 -36.9000 HU 80 970 1 10 294
1980250N13341 1980 74 NA NA FRANCES 1980-09-12 09:00:00 TS 17.4775 -37.3573 main 2116 2108 P_____________ AL121980 17.4775 -37.3573 HU 80 970 1 11 305
1980250N13341 1980 74 NA NA FRANCES 1980-09-12 12:00:00 TS 17.8000 -37.8000 80 970 hurdat_atl main 2108 2101 O_____________ hurdat_atl AL121980 17.8000 -37.8000 HU 80 970 1 10 309
1980250N13341 1980 74 NA NA FRANCES 1980-09-12 15:00:00 TS 18.0722 -38.1352 main 2110 2096 P_____________ AL121980 18.0722 -38.1352 HU 80 970 1 8 307
1980250N13341 1980 74 NA NA FRANCES 1980-09-12 18:00:00 TS 18.3000 -38.5000 80 970 hurdat_atl main 2096 2076 O_____________ hurdat_atl AL121980 18.3000 -38.5000 HU 80 970 1 9 295
1980250N13341 1980 74 NA NA FRANCES 1980-09-12 21:00:00 TS 18.4726 -39.0275 main 2077 2045 P_____________ AL121980 18.4726 -39.0275 HU 80 970 1 11 286
1980250N13341 1980 74 NA NA FRANCES 1980-09-13 00:00:00 TS 18.6000 -39.6000 80 970 hurdat_atl main 2045 2020 O_____________ hurdat_atl AL121980 18.6000 -39.6000 HU 80 970 1 10 284
1980250N13341 1980 74 NA NA FRANCES 1980-09-13 03:00:00 TS 18.7145 -40.0776 main 2020 1997 P_____________ AL121980 18.7145 -40.0776 HU 82 969 1 10 282
1980250N13341 1980 74 NA NA FRANCES 1980-09-13 06:00:00 TS 18.8000 -40.6000 85 968 hurdat_atl main 1997 1959 O_____________ hurdat_atl AL121980 18.8000 -40.6000 HU 85 968 2 11 276
1980250N13341 1980 74 NA NA FRANCES 1980-09-13 09:00:00 TS 18.8350 -41.2704 main 1953 1917 P_____________ AL121980 18.8350 -41.2704 HU 87 966 2 13 274
1980250N13341 1980 74 NA NA FRANCES 1980-09-13 12:00:00 TS 18.9000 -42.0000 90 965 hurdat_atl main 1917 1888 O_____________ hurdat_atl AL121980 18.9000 -42.0000 HU 90 965 2 14 280
1980250N13341 1980 74 NA NA FRANCES 1980-09-13 15:00:00 TS 19.0698 -42.7075 main 1890 1867 P_____________ AL121980 19.0698 -42.7075 HU 90 965 2 14 287
1980250N13341 1980 74 NA NA FRANCES 1980-09-13 18:00:00 TS 19.3000 -43.4000 90 965 hurdat_atl main 1867 1852 O_____________ hurdat_atl AL121980 19.3000 -43.4000 HU 90 965 2 14 291
1980250N13341 1980 74 NA NA FRANCES 1980-09-13 21:00:00 TS 19.5498 -44.0650 main 1847 1840 P_____________ AL121980 19.5498 -44.0650 HU 90 965 2 13 292
1980250N13341 1980 74 NA NA FRANCES 1980-09-14 00:00:00 TS 19.8000 -44.7000 90 965 hurdat_atl main 1845 1830 O_____________ hurdat_atl AL121980 19.8000 -44.7000 HU 90 965 2 13 291
1980250N13341 1980 74 NA NA FRANCES 1980-09-14 03:00:00 TS 19.9924 -45.3229 main 1835 1821 P_____________ AL121980 19.9924 -45.3229 HU 90 965 2 12 290
1980250N13341 1980 74 NA NA FRANCES 1980-09-14 06:00:00 TS 20.2000 -45.9000 90 965 hurdat_atl main 1827 1823 O_____________ hurdat_atl AL121980 20.2000 -45.9000 HU 90 965 2 11 295
1980250N13341 1980 74 NA NA FRANCES 1980-09-14 09:00:00 TS 20.4697 -46.4078 main 1837 1832 P_____________ AL121980 20.4697 -46.4078 HU 90 965 2 11 303
1980250N13341 1980 74 NA NA FRANCES 1980-09-14 12:00:00 TS 20.8000 -46.9000 90 965 hurdat_atl main 1844 1840 O_____________ hurdat_atl AL121980 20.8000 -46.9000 HU 90 965 2 12 306
1980250N13341 1980 74 NA NA FRANCES 1980-09-14 15:00:00 TS 21.1776 -47.4650 main 1858 1846 P_____________ AL121980 21.1776 -47.4650 HU 90 965 2 13 308
1980250N13341 1980 74 NA NA FRANCES 1980-09-14 18:00:00 TS 21.6000 -48.0000 90 965 hurdat_atl main 1846 1837 O_____________ hurdat_atl AL121980 21.6000 -48.0000 HU 90 965 2 13 314
1980250N13341 1980 74 NA NA FRANCES 1980-09-14 21:00:00 TS 22.0497 -48.4228 main 1838 1807 P_____________ AL121980 22.0497 -48.4228 HU 90 965 2 12 321
1980250N13341 1980 74 NA NA FRANCES 1980-09-15 00:00:00 TS 22.5000 -48.8000 90 965 hurdat_atl main 1807 1774 O_____________ hurdat_atl AL121980 22.5000 -48.8000 HU 90 965 2 11 318
1980250N13341 1980 74 NA NA FRANCES 1980-09-15 03:00:00 TS 22.8700 -49.2154 main 1777 1746 P_____________ AL121980 22.8700 -49.2154 HU 90 965 2 11 317
1980250N13341 1980 74 NA NA FRANCES 1980-09-15 06:00:00 TS 23.3000 -49.6000 90 965 hurdat_atl main 1748 1735 O_____________ hurdat_atl AL121980 23.3000 -49.6000 HU 90 965 2 12 329
1980250N13341 1980 74 NA NA FRANCES 1980-09-15 09:00:00 TS 23.9199 -49.9152 main 1738 1731 P_____________ AL121980 23.9199 -49.9152 HU 90 965 2 14 337
1980250N13341 1980 74 NA NA FRANCES 1980-09-15 12:00:00 TS 24.6000 -50.2000 90 965 hurdat_atl main 1735 1723 O_____________ hurdat_atl AL121980 24.6000 -50.2000 HU 90 965 2 14 336
1980250N13341 1980 74 NA NA FRANCES 1980-09-15 15:00:00 TS 25.1776 -50.5447 main 1732 1722 P_____________ AL121980 25.1776 -50.5447 HU 90 965 2 13 336
1980250N13341 1980 74 NA NA FRANCES 1980-09-15 18:00:00 TS 25.8000 -50.8000 90 965 hurdat_atl main 1732 1732 O_____________ hurdat_atl AL121980 25.8000 -50.8000 HU 90 965 2 14 349
1980250N13341 1980 74 NA NA FRANCES 1980-09-15 21:00:00 TS 26.5849 -50.8605 main 1763 1763 P_____________ AL121980 26.5849 -50.8605 HU 90 965 2 16 0
1980250N13341 1980 74 NA NA FRANCES 1980-09-16 00:00:00 TS 27.4000 -50.8000 90 965 hurdat_atl main 1816 1816 O_____________ hurdat_atl AL121980 27.4000 -50.8000 HU 90 965 2 15 4
1980250N13341 1980 74 NA NA FRANCES 1980-09-16 03:00:00 TS 28.1149 -50.7445 main 1865 1865 P_____________ AL121980 28.1149 -50.7445 HU 90 965 2 14 7
1980250N13341 1980 74 NA NA FRANCES 1980-09-16 06:00:00 TS 28.8000 -50.6000 90 965 hurdat_atl main 1916 1916 O_____________ hurdat_atl AL121980 28.8000 -50.6000 HU 90 965 2 14 14
1980250N13341 1980 74 NA NA FRANCES 1980-09-16 09:00:00 TS 29.4850 -50.3447 main 1920 1846 P_____________ AL121980 29.4850 -50.3447 HU 90 965 2 15 20
1980250N13341 1980 74 NA NA FRANCES 1980-09-16 12:00:00 TS 30.2000 -50.0000 90 965 hurdat_atl main 1846 1762 O_____________ hurdat_atl AL121980 30.2000 -50.0000 HU 90 965 2 17 22
1980250N13341 1980 74 NA NA FRANCES 1980-09-16 15:00:00 TS 31.0147 -49.6446 main 1763 1682 P_____________ AL121980 31.0147 -49.6446 HU 90 965 2 17 23
1980250N13341 1980 74 NA NA FRANCES 1980-09-16 18:00:00 TS 31.8000 -49.2000 90 965 hurdat_atl main 1682 1626 O_____________ hurdat_atl AL121980 31.8000 -49.2000 HU 90 965 2 17 32
1980250N13341 1980 74 NA NA FRANCES 1980-09-16 21:00:00 TS 32.4529 -48.6003 main 1617 1576 P_____________ AL121980 32.4529 -48.6003 HU 90 965 2 16 40
1980250N13341 1980 74 NA NA FRANCES 1980-09-17 00:00:00 TS 33.0000 -48.0000 90 965 hurdat_atl main 1576 1532 O_____________ hurdat_atl AL121980 33.0000 -48.0000 HU 90 965 2 13 40
1980250N13341 1980 74 NA NA FRANCES 1980-09-17 03:00:00 TS 33.4795 -47.5688 main 1532 1500 P_____________ AL121980 33.4795 -47.5688 HU 87 966 2 11 37
1980250N13341 1980 74 NA NA FRANCES 1980-09-17 06:00:00 TS 33.9000 -47.2000 85 968 hurdat_atl main 1500 1470 O_____________ hurdat_atl AL121980 33.9000 -47.2000 HU 85 968 2 10 39
1980250N13341 1980 74 NA NA FRANCES 1980-09-17 09:00:00 TS 34.2926 -46.7772 main 1470 1440 P_____________ AL121980 34.2926 -46.7772 HU 82 969 1 10 40
1980250N13341 1980 74 NA NA FRANCES 1980-09-17 12:00:00 TS 34.7000 -46.4000 80 970 hurdat_atl main 1440 1399 O_____________ hurdat_atl AL121980 34.7000 -46.4000 HU 80 970 1 11 32
1980250N13341 1980 74 NA NA FRANCES 1980-09-17 15:00:00 TS 35.1849 -46.0976 main 1399 1355 P_____________ AL121980 35.1849 -46.0976 HU 80 970 1 11 22
1980250N13341 1980 74 NA NA FRANCES 1980-09-17 18:00:00 TS 35.7000 -45.9000 80 970 hurdat_atl main 1355 1308 O_____________ hurdat_atl AL121980 35.7000 -45.9000 HU 80 970 1 10 13
1980250N13341 1980 74 NA NA FRANCES 1980-09-17 21:00:00 TS 36.1924 -45.8120 main 1308 1258 P_____________ AL121980 36.1924 -45.8120 HU 80 970 1 10 5
1980250N13341 1980 74 NA NA FRANCES 1980-09-18 00:00:00 TS 36.7000 -45.8000 80 970 hurdat_atl main 1258 1209 O_____________ hurdat_atl AL121980 36.7000 -45.8000 HU 80 970 1 10 2
1980250N13341 1980 74 NA NA FRANCES 1980-09-18 03:00:00 TS 37.2349 -45.7631 main 1209 1150 P_____________ AL121980 37.2349 -45.7631 HU 80 970 1 11 0
1980250N13341 1980 74 NA NA FRANCES 1980-09-18 06:00:00 TS 37.8000 -45.8000 80 970 hurdat_atl main 1150 1084 O_____________ hurdat_atl AL121980 37.8000 -45.8000 HU 80 970 1 12 352
1980250N13341 1980 74 NA NA FRANCES 1980-09-18 09:00:00 TS 38.4076 -45.9768 main 1084 1017 P_____________ AL121980 38.4076 -45.9768 HU 80 970 1 12 345
1980250N13341 1980 74 NA NA FRANCES 1980-09-18 12:00:00 TS 39.0000 -46.2000 80 970 hurdat_atl main 1017 961 O_____________ hurdat_atl AL121980 39.0000 -46.2000 HU 80 970 1 11 344
1980250N13341 1980 74 NA NA FRANCES 1980-09-18 15:00:00 TS 39.5000 -46.3873 main 961 910 P_____________ AL121980 39.5000 -46.3873 HU 80 971 1 10 347
1980250N13341 1980 74 NA NA FRANCES 1980-09-18 18:00:00 TS 40.0000 -46.5000 80 972 hurdat_atl main 910 856 O_____________ hurdat_atl AL121980 40.0000 -46.5000 HU 80 972 1 11 355
1980250N13341 1980 74 NA NA FRANCES 1980-09-18 21:00:00 TS 40.5848 -46.5171 main 856 808 P_____________ AL121980 40.5848 -46.5171 HU 77 973 1 12 4
1980250N13341 1980 74 NA NA FRANCES 1980-09-19 00:00:00 TS 41.2000 -46.4000 75 974 hurdat_atl main 808 769 O_____________ hurdat_atl AL121980 41.2000 -46.4000 HU 75 974 1 12 12
1980250N13341 1980 74 NA NA FRANCES 1980-09-19 03:00:00 TS 41.7999 -46.1598 main 769 747 P_____________ AL121980 41.7999 -46.1598 HU 72 976 1 13 20
1980250N13341 1980 74 NA NA FRANCES 1980-09-19 06:00:00 TS 42.4000 -45.8000 70 978 hurdat_atl main 747 723 O_____________ hurdat_atl AL121980 42.4000 -45.8000 HU 70 978 1 13 24
1980250N13341 1980 74 NA NA FRANCES 1980-09-19 09:00:00 TS 43.0216 -45.4313 main 730 716 P_____________ AL121980 43.0216 -45.4313 HU 67 982 1 14 29
1980250N13341 1980 74 NA NA FRANCES 1980-09-19 12:00:00 TS 43.6000 -44.9000 65 986 hurdat_atl main 724 724 O_____________ hurdat_atl AL121980 43.6000 -44.9000 HU 65 986 1 14 42
1980250N13341 1980 74 NA NA FRANCES 1980-09-19 15:00:00 TS 44.0496 -44.1448 main 758 753 P_____________ AL121980 44.0496 -44.1448 HU 65 986 1 15 54
1980250N13341 1980 74 NA NA FRANCES 1980-09-19 18:00:00 TS 44.5000 -43.2000 65 986 hurdat_atl main 795 795 O_____________ hurdat_atl AL121980 44.5000 -43.2000 HU 65 986 1 18 55
1980250N13341 1980 74 NA NA FRANCES 1980-09-19 21:00:00 TS 45.0704 -42.1224 main 845 845 P_____________ AL121980 45.0704 -42.1224 HU 65 987 1 20 52
1980250N13341 1980 74 NA NA FRANCES 1980-09-20 00:00:00 TS 45.7000 -41.0000 65 988 hurdat_atl main 903 903 O_____________ hurdat_atl AL121980 45.7000 -41.0000 HU 65 988 1 18 50
1980250N13341 1980 74 NA NA FRANCES 1980-09-20 03:00:00 TS 46.2554 -40.0836 main 953 953 P_____________ AL121980 46.2554 -40.0836 HU 62 989 0 19 47
1980250N13341 1980 74 NA NA FRANCES 1980-09-20 06:00:00 TS 47.0000 -39.0000 60 990 hurdat_atl main 1022 1022 O_____________ hurdat_atl AL121980 47.0000 -39.0000 TS 60 990 0 26 44
1980250N13341 1980 74 NA NA FRANCES 1980-09-20 09:00:00 TS 48.1646 -37.3722 main 1130 1130 P_____________ AL121980 48.1646 -37.3722 TS 57 992 0 33 44
1980250N13341 1980 74 NA NA FRANCES 1980-09-20 12:00:00 TS 49.4000 -35.5000 55 994 hurdat_atl main 1267 1238 O_____________ hurdat_atl AL121980 49.4000 -35.5000 TS 55 994 0 32 49
1980250N13341 1980 74 NA NA FRANCES 1980-09-20 15:00:00 TS 50.2690 -33.6958 main 1234 1204 P_____________ AL121980 50.2690 -33.6958 TS 52 996 0 29 51
1980250N13341 1980 74 NA NA FRANCES 1980-09-20 18:00:00 TS 51.2000 -32.0000 50 998 hurdat_atl main 1201 1143 O_____________ hurdat_atl AL121980 51.2000 -32.0000 TS 50 998 0 30 42
1980250N13341 1980 74 NA NA FRANCES 1980-09-20 21:00:00 TS 52.4874 -30.4764 main 1139 1083 P_____________ AL121980 52.4874 -30.4764 TS 47 999 0 33 33
1980250N13341 1980 74 NA NA FRANCES 1980-09-21 00:00:00 ET 54.0000 -29.0000 45 1000 hurdat_atl main 1080 O_____________ hurdat_atl AL121980 54.0000 -29.0000 EX 45 1000 -4 35 30

IBTrACS Databaseについて

本データベースは、米国NOAAが公開する1842年以降の世界の熱帯低気圧のベストトラックデータアーカイブInternational Best Track Archive for Climate Stewardship (IBTrACS)を、ウェブで閲覧しやすい形式に変換したものです。

最終更新日:2021-12-01